Time;durP1;ratioP1;P1;durP2;ratioP2;P2;SDS_P1;SDS_P2;PMS_P1;PMS_P2;Temp;Humidity;BMP_temperature;BMP_pressure;BME280_temperature;BME280_humidity;BME280_pressure;Samples;Min_cycle;Max_cycle;Signal;HPM_P1;HPM_P2
2023/05/26 00:01:46;;;;;;;3.80;1.67;;;17.70;72.80;;;;;;4958720;28;20208;-65
2023/05/26 00:04:16;;;;;;;4.95;1.52;;;17.70;72.90;;;;;;4934141;28;20204;-64
2023/05/26 00:06:46;;;;;;;4.20;1.92;;;17.60;72.90;;;;;;4977743;28;20247;-64
2023/05/26 00:09:13;;;;;;;3.33;1.75;;;17.60;72.90;;;;;;4976986;28;20226;-65
2023/05/26 00:11:41;;;;;;;5.60;1.98;;;17.50;72.70;;;;;;4976756;28;20215;-64
2023/05/26 00:14:10;;;;;;;4.30;1.73;;;17.50;72.70;;;;;;4971799;28;20259;-65
2023/05/26 00:16:37;;;;;;;5.80;1.80;;;17.50;72.70;;;;;;4968822;28;20300;-64
2023/05/26 00:19:07;;;;;;;5.23;1.97;;;17.50;72.70;;;;;;4968154;28;20224;-65
2023/05/26 00:21:35;;;;;;;4.75;1.80;;;17.40;72.60;;;;;;4970249;28;20199;-65
2023/05/26 00:24:04;;;;;;;2.72;1.67;;;17.40;72.60;;;;;;4950474;28;20216;-65
2023/05/26 00:26:31;;;;;;;8.13;2.30;;;17.40;72.60;;;;;;4971052;28;20214;-65
2023/05/26 00:28:58;;;;;;;3.13;1.30;;;17.40;73.40;;;;;;4968724;28;20203;-65
2023/05/26 00:31:25;;;;;;;4.18;1.98;;;17.40;72.70;;;;;;4970958;28;20207;-65
2023/05/26 00:33:52;;;;;;;4.07;1.70;;;17.30;72.60;;;;;;4950689;28;20214;-65
2023/05/26 00:36:20;;;;;;;1.90;1.33;;;17.30;72.70;;;;;;4951749;28;20213;-65
2023/05/26 00:38:47;;;;;;;4.77;2.03;;;17.30;72.70;;;;;;4968110;28;20597;-65
2023/05/26 00:41:15;;;;;;;3.40;1.77;;;17.40;72.80;;;;;;4969506;28;20212;-65
2023/05/26 00:43:42;;;;;;;7.13;1.80;;;17.40;72.60;;;;;;4967351;28;20674;-66
2023/05/26 00:46:09;;;;;;;5.47;1.90;;;17.40;72.60;;;;;;4969658;28;20639;-65
2023/05/26 00:48:36;;;;;;;2.70;1.70;;;17.40;72.60;;;;;;4968940;28;20281;-65
2023/05/26 00:51:04;;;;;;;3.00;1.53;;;17.40;72.50;;;;;;4970028;28;20195;-65
2023/05/26 00:53:32;;;;;;;5.38;1.70;;;17.30;72.40;;;;;;4968382;28;20286;-65
2023/05/26 00:56:01;;;;;;;4.07;1.60;;;17.20;72.20;;;;;;4968517;28;20197;-65
2023/05/26 00:58:30;;;;;;;2.10;1.40;;;17.20;72.20;;;;;;4968093;28;20205;-65
2023/05/26 01:00:57;;;;;;;5.97;1.60;;;17.20;72.20;;;;;;4972515;28;20204;-64
2023/05/26 01:03:26;;;;;;;1.70;1.20;;;17.10;72.40;;;;;;4968657;28;20202;-64
2023/05/26 01:05:54;;;;;;;6.00;1.40;;;17.00;72.30;;;;;;4966625;28;20793;-65
2023/05/26 01:08:23;;;;;;;3.07;1.20;;;17.00;72.50;;;;;;4969789;28;20216;-65
2023/05/26 01:10:53;;;;;;;2.73;1.30;;;16.90;72.50;;;;;;4969786;28;20202;-65
2023/05/26 01:13:25;;;;;;;2.13;1.38;;;16.90;72.60;;;;;;4966520;28;20245;-65
2023/05/26 01:16:03;;;;;;;3.67;1.40;;;16.80;72.60;;;;;;4967029;28;20193;-65
2023/05/26 01:18:40;;;;;;;1.53;1.30;;;16.80;72.70;;;;;;4943973;28;20691;-65
2023/05/26 01:21:12;;;;;;;2.10;1.30;;;16.70;72.80;;;;;;4968911;28;20601;-65
2023/05/26 01:23:58;;;;;;;3.95;1.42;;;16.70;72.80;;;;;;4967519;28;20202;-64
2023/05/26 01:26:48;;;;;;;1.93;1.10;;;16.70;72.90;;;;;;4963599;28;20299;-65
2023/05/26 01:32:30;;;;;;;2.57;1.40;;;16.60;72.90;;;;;;4963127;28;20216;-65
2023/05/26 01:34:57;;;;;;;3.43;1.40;;;16.60;73.90;;;;;;4973977;28;20619;-65
2023/05/26 01:37:24;;;;;;;2.93;1.10;;;16.60;73.20;;;;;;4972153;28;20739;-65
2023/05/26 01:39:52;;;;;;;7.03;2.10;;;16.60;73.20;;;;;;4950945;28;20303;-65
2023/05/26 01:42:24;;;;;;;3.23;1.50;;;16.60;73.40;;;;;;4965973;28;20249;-65
2023/05/26 01:44:58;;;;;;;4.33;1.70;;;16.60;73.30;;;;;;4968332;28;20231;-65
2023/05/26 01:47:27;;;;;;;4.10;1.90;;;16.50;73.30;;;;;;4982299;28;20230;-65
2023/05/26 01:49:57;;;;;;;5.63;2.00;;;16.50;73.70;;;;;;4970457;28;20207;-65
2023/05/26 01:52:25;;;;;;;2.50;1.53;;;16.60;73.70;;;;;;4973061;28;20201;-65
2023/05/26 01:54:57;;;;;;;3.27;1.60;;;16.50;73.70;;;;;;4950090;28;20239;-65
2023/05/26 01:57:26;;;;;;;4.07;1.50;;;16.50;73.80;;;;;;4957157;28;20219;-65
2023/05/26 01:59:56;;;;;;;2.93;1.40;;;16.40;73.80;;;;;;4967221;28;20328;-65
2023/05/26 02:02:23;;;;;;;4.07;1.40;;;16.50;73.90;;;;;;4967269;28;20208;-65
2023/05/26 02:04:50;;;;;;;4.47;1.60;;;16.40;73.90;;;;;;4970134;28;20596;-65
2023/05/26 02:07:19;;;;;;;3.30;1.40;;;16.30;74.00;;;;;;4938569;28;20217;-65
2023/05/26 02:09:46;;;;;;;2.07;1.27;;;16.30;74.80;;;;;;4952469;28;20253;-66
2023/05/26 02:12:13;;;;;;;2.40;1.50;;;16.30;74.20;;;;;;4970800;28;20257;-65
2023/05/26 02:14:40;;;;;;;1.67;1.30;;;16.30;74.30;;;;;;4935903;29;20197;-66
2023/05/26 02:17:10;;;;;;;3.70;1.40;;;16.20;74.30;;;;;;4952641;28;20209;-66
2023/05/26 02:19:40;;;;;;;2.57;1.27;;;16.30;74.60;;;;;;4938408;29;20305;-65
2023/05/26 02:22:07;;;;;;;3.30;1.40;;;16.30;74.60;;;;;;4935210;28;20218;-65
2023/05/26 02:24:34;;;;;;;2.37;1.20;;;16.40;74.60;;;;;;4954049;28;20210;-65
2023/05/26 02:27:01;;;;;;;2.20;1.03;;;16.40;74.50;;;;;;4952601;28;20615;-66
2023/05/26 02:29:28;;;;;;;3.03;1.40;;;16.30;74.50;;;;;;4953970;28;20677;-66
2023/05/26 02:31:55;;;;;;;2.50;1.33;;;16.30;74.60;;;;;;4947157;28;20213;-66
2023/05/26 02:34:25;;;;;;;1.57;1.10;;;16.30;74.80;;;;;;4952963;28;20607;-66
2023/05/26 02:36:55;;;;;;;2.00;1.10;;;16.30;74.90;;;;;;4951671;28;20205;-66
2023/05/26 02:39:22;;;;;;;3.10;1.40;;;16.20;74.90;;;;;;4961552;28;20309;-66
2023/05/26 02:41:49;;;;;;;2.10;1.30;;;16.10;75.00;;;;;;4955646;28;20685;-65
2023/05/26 02:44:16;;;;;;;2.47;1.20;;;16.10;75.20;;;;;;4951303;28;20285;-66
2023/05/26 02:46:43;;;;;;;2.50;1.33;;;16.10;75.30;;;;;;4950806;28;20201;-65
2023/05/26 02:49:10;;;;;;;6.00;1.57;;;16.10;75.30;;;;;;4966989;28;20244;-65
2023/05/26 02:51:39;;;;;;;6.70;2.40;;;16.10;75.50;;;;;;4952576;28;20225;-66
2023/05/26 02:54:06;;;;;;;4.23;1.90;;;16.10;75.90;;;;;;4956978;28;20597;-65
2023/05/26 02:56:33;;;;;;;4.83;2.20;;;16.10;75.80;;;;;;4936416;29;20208;-66
2023/05/26 02:59:00;;;;;;;3.87;1.80;;;16.20;76.00;;;;;;4962256;28;20321;-66
2023/05/26 03:01:27;;;;;;;4.47;1.90;;;16.10;75.90;;;;;;4955416;28;20222;-64
2023/05/26 03:03:54;;;;;;;2.63;1.63;;;16.10;76.00;;;;;;4956732;28;20252;-64
2023/05/26 03:06:22;;;;;;;3.30;1.60;;;16.10;76.00;;;;;;4963035;28;20247;-65
2023/05/26 03:08:51;;;;;;;1.57;1.33;;;16.20;76.20;;;;;;4944224;28;20209;-65
2023/05/26 03:11:18;;;;;;;1.47;1.20;;;16.20;76.20;;;;;;4950500;28;20197;-65
2023/05/26 03:13:45;;;;;;;2.70;1.33;;;16.20;76.10;;;;;;4948421;29;20264;-65
2023/05/26 03:16:14;;;;;;;1.07;1.00;;;16.30;76.20;;;;;;4934687;29;20212;-65
2023/05/26 03:18:41;;;;;;;3.10;1.50;;;16.30;76.20;;;;;;4933497;28;20701;-65
2023/05/26 03:21:09;;;;;;;2.17;1.43;;;16.30;76.30;;;;;;4950138;28;20213;-65
2023/05/26 03:23:36;;;;;;;2.53;1.37;;;16.40;76.40;;;;;;4956828;28;20706;-66
2023/05/26 03:26:05;;;;;;;2.10;1.10;;;16.30;76.20;;;;;;4963860;28;20220;-65
2023/05/26 03:28:34;;;;;;;4.37;1.80;;;16.30;76.30;;;;;;4946453;28;20204;-65
2023/05/26 03:31:01;;;;;;;2.00;1.30;;;16.30;76.50;;;;;;4955724;28;20203;-66
2023/05/26 03:33:31;;;;;;;6.67;1.67;;;16.30;76.50;;;;;;4959338;28;20213;-65
2023/05/26 03:35:59;;;;;;;4.60;1.60;;;16.30;76.60;;;;;;4938308;29;20213;-65
2023/05/26 03:38:26;;;;;;;4.27;1.73;;;16.20;76.70;;;;;;4951367;28;20215;-65
2023/05/26 03:40:54;;;;;;;6.13;1.90;;;16.20;76.80;;;;;;4944677;28;20232;-65
2023/05/26 03:43:24;;;;;;;2.07;1.40;;;16.30;76.90;;;;;;4963107;28;20831;-65
2023/05/26 03:45:51;;;;;;;2.00;1.47;;;16.30;76.80;;;;;;4939018;29;20205;-65
2023/05/26 03:48:18;;;;;;;5.90;2.17;;;16.30;76.80;;;;;;4954572;28;20206;-65
2023/05/26 03:50:47;;;;;;;2.60;1.37;;;16.30;76.90;;;;;;4939257;29;20422;-65
2023/05/26 03:53:17;;;;;;;2.07;1.23;;;16.30;76.80;;;;;;4948905;28;20449;-65
2023/05/26 03:55:44;;;;;;;1.83;1.10;;;16.30;76.80;;;;;;4959388;28;20204;-65
2023/05/26 03:58:12;;;;;;;3.33;1.60;;;16.40;77.00;;;;;;4946938;28;20212;-65
2023/05/26 04:00:41;;;;;;;1.60;1.30;;;16.30;76.90;;;;;;4941530;28;20248;-65
2023/05/26 04:03:08;;;;;;;4.00;1.23;;;16.40;76.90;;;;;;4936882;29;20225;-65
2023/05/26 04:05:39;;;;;;;2.03;1.10;;;17.30;77.90;;;;;;4934183;29;20230;-65
2023/05/26 04:08:06;;;;;;;2.97;1.53;;;16.40;77.40;;;;;;4955875;28;20202;-65
2023/05/26 04:10:33;;;;;;;2.87;1.20;;;16.40;77.90;;;;;;4962283;28;20194;-65
2023/05/26 04:13:00;;;;;;;2.10;1.17;;;16.40;77.10;;;;;;4951483;28;20542;-66
2023/05/26 04:15:28;;;;;;;1.27;1.17;;;16.40;77.10;;;;;;4933973;29;20212;-66
2023/05/26 04:17:58;;;;;;;2.60;1.47;;;16.40;76.90;;;;;;4954287;28;20219;-66
2023/05/26 04:20:25;;;;;;;2.07;1.20;;;16.40;76.90;;;;;;4969693;28;20220;-66
2023/05/26 04:22:53;;;;;;;2.00;1.13;;;16.40;76.90;;;;;;4963447;28;20292;-64
2023/05/26 04:25:20;;;;;;;3.47;1.17;;;16.40;77.10;;;;;;4956806;28;20217;-65
2023/05/26 04:27:56;;;;;;;2.83;1.37;;;16.40;76.90;;;;;;4937687;28;20295;-64
2023/05/26 04:30:48;;;;;;;4.20;1.73;;;16.40;76.90;;;;;;4940373;28;20205;-65
2023/05/26 04:33:39;;;;;;;1.77;1.30;;;16.50;77.20;;;;;;4942869;28;20217;-65
2023/05/26 04:36:17;;;;;;;2.90;1.50;;;16.50;77.20;;;;;;4949577;28;20205;-64
2023/05/26 04:38:47;;;;;;;1.90;1.00;;;16.50;77.10;;;;;;4949523;28;20318;-64
2023/05/26 04:41:15;;;;;;;4.90;1.27;;;16.50;77.10;;;;;;4941701;29;20297;-65
2023/05/26 04:43:43;;;;;;;1.30;1.20;;;16.50;77.10;;;;;;4960097;28;20201;-64
2023/05/26 04:46:11;;;;;;;2.13;1.17;;;16.50;77.00;;;;;;4935688;29;20217;-65
2023/05/26 04:48:40;;;;;;;1.80;1.10;;;16.50;76.90;;;;;;4954605;28;20210;-64
2023/05/26 04:51:08;;;;;;;0.83;0.80;;;16.50;76.90;;;;;;4960438;28;20683;-65
2023/05/26 04:53:37;;;;;;;2.30;1.30;;;16.50;76.80;;;;;;4948683;28;21015;-65
2023/05/26 04:56:06;;;;;;;2.37;1.17;;;16.50;76.90;;;;;;4940403;29;20209;-64
2023/05/26 04:58:39;;;;;;;1.55;1.00;;;16.60;76.90;;;;;;4935435;29;20305;-64
2023/05/26 05:01:06;;;;;;;1.70;1.10;;;16.70;76.90;;;;;;4961628;28;20229;-63
2023/05/26 05:03:46;;;;;;;4.03;1.50;;;16.70;76.80;;;;;;4954868;28;20317;-65
2023/05/26 05:06:18;;;;;;;1.33;1.10;;;16.70;76.60;;;;;;4933489;29;20248;-65
2023/05/26 05:08:45;;;;;;;1.93;1.20;;;16.80;76.70;;;;;;4935201;28;20225;-64
2023/05/26 05:11:12;;;;;;;6.20;1.50;;;16.80;76.50;;;;;;4929470;28;20209;-64
2023/05/26 05:13:40;;;;;;;1.37;1.20;;;16.90;76.60;;;;;;4934214;28;21007;-65
2023/05/26 05:16:07;;;;;;;2.30;1.20;;;16.90;77.30;;;;;;4938402;29;20229;-65
2023/05/26 05:18:34;;;;;;;1.93;1.50;;;16.90;76.40;;;;;;4922990;29;20255;-64
2023/05/26 05:21:02;;;;;;;1.45;1.00;;;17.00;76.40;;;;;;4952145;28;20223;-65
2023/05/26 05:23:34;;;;;;;3.77;1.43;;;17.00;76.40;;;;;;4948897;28;20201;-65
2023/05/26 05:26:02;;;;;;;1.67;1.00;;;17.00;76.30;;;;;;4927341;29;20302;-64
2023/05/26 05:28:30;;;;;;;2.05;1.30;;;17.00;76.20;;;;;;4939435;28;20210;-65
2023/05/26 05:31:18;;;;;;;1.53;1.10;;;17.00;76.10;;;;;;4953299;28;20222;-65
2023/05/26 05:33:47;;;;;;;2.53;0.90;;;17.00;76.00;;;;;;4931303;28;20207;-64
2023/05/26 05:36:19;;;;;;;1.10;1.00;;;17.00;75.90;;;;;;4952475;28;20561;-65
2023/05/26 05:38:46;;;;;;;1.23;1.00;;;16.90;75.60;;;;;;4955001;28;20202;-64
2023/05/26 05:41:14;;;;;;;1.17;0.82;;;17.00;75.70;;;;;;4952128;28;20230;-65
2023/05/26 05:43:41;;;;;;;1.90;0.90;;;17.00;75.60;;;;;;4946594;28;20624;-66
2023/05/26 05:46:08;;;;;;;1.17;0.80;;;17.00;75.60;;;;;;4958911;28;20203;-65
2023/05/26 05:48:55;;;;;;;1.73;0.90;;;17.00;75.50;;;;;;4952502;28;20220;-65
2023/05/26 05:51:31;;;;;;;3.45;1.10;;;17.00;75.40;;;;;;4936201;28;20212;-65
2023/05/26 05:53:58;;;;;;;1.37;0.90;;;17.10;75.40;;;;;;4933659;29;20214;-66
2023/05/26 05:56:27;;;;;;;1.57;1.20;;;17.10;75.40;;;;;;4943729;28;20546;-65
2023/05/26 05:58:55;;;;;;;1.70;1.10;;;17.10;75.20;;;;;;4951852;28;20214;-65
2023/05/26 06:01:23;;;;;;;1.40;1.00;;;17.10;75.20;;;;;;4936233;28;20254;-66
2023/05/26 06:03:51;;;;;;;2.25;1.05;;;17.10;75.10;;;;;;4948184;28;20264;-65
2023/05/26 06:06:19;;;;;;;2.20;1.10;;;17.10;75.00;;;;;;4969373;28;20318;-65
2023/05/26 06:08:47;;;;;;;3.87;1.30;;;17.10;74.80;;;;;;4950317;28;20669;-65
2023/05/26 06:11:14;;;;;;;1.80;1.13;;;17.10;74.60;;;;;;4980616;28;20213;-65
2023/05/26 06:13:44;;;;;;;1.67;1.08;;;17.10;74.50;;;;;;4950764;28;20242;-65
2023/05/26 06:16:13;;;;;;;1.63;1.00;;;17.30;74.60;;;;;;4948036;28;20224;-65
2023/05/26 06:18:41;;;;;;;3.03;1.20;;;17.00;74.20;;;;;;4953045;28;20345;-65
2023/05/26 06:21:08;;;;;;;0.93;0.90;;;17.00;74.20;;;;;;4956502;28;20223;-65
2023/05/26 06:23:36;;;;;;;2.73;1.20;;;17.00;74.20;;;;;;4945987;28;20348;-65
2023/05/26 06:26:05;;;;;;;1.73;1.00;;;17.10;74.30;;;;;;4959603;28;20205;-64
2023/05/26 06:28:32;;;;;;;1.60;1.10;;;17.10;74.30;;;;;;4975943;28;20198;-65
2023/05/26 06:30:59;;;;;;;1.70;1.10;;;17.20;74.30;;;;;;4967927;28;20228;-65
2023/05/26 06:33:39;;;;;;;1.27;1.05;;;17.20;74.20;;;;;;4941951;28;20335;-65
2023/05/26 06:36:07;;;;;;;2.30;1.13;;;17.30;74.30;;;;;;4966517;28;20211;-65
2023/05/26 06:38:34;;;;;;;2.03;1.27;;;17.30;74.20;;;;;;4965947;28;20358;-65
2023/05/26 06:41:08;;;;;;;2.35;1.17;;;17.40;74.20;;;;;;4964935;28;20235;-65
2023/05/26 06:43:36;;;;;;;1.23;1.00;;;17.40;74.10;;;;;;4947324;28;20302;-65
2023/05/26 06:46:05;;;;;;;1.23;0.80;;;17.50;74.10;;;;;;4957218;28;20304;-65
2023/05/26 06:48:33;;;;;;;2.57;1.13;;;17.60;74.20;;;;;;4963606;28;20211;-65
2023/05/26 06:51:26;;;;;;;2.03;1.02;;;17.70;74.20;;;;;;4962934;28;20218;-65
2023/05/26 06:53:54;;;;;;;2.37;1.10;;;17.80;73.80;;;;;;4965447;28;20269;-65
2023/05/26 06:56:22;;;;;;;1.70;1.10;;;17.80;73.50;;;;;;4970412;28;20214;-65
2023/05/26 06:58:50;;;;;;;2.70;1.50;;;17.80;73.20;;;;;;4956716;28;20392;-65
2023/05/26 07:01:17;;;;;;;1.02;0.90;;;17.90;73.30;;;;;;4952844;28;20226;-66
2023/05/26 07:03:45;;;;;;;2.60;1.27;;;17.90;73.10;;;;;;4954367;28;20230;-65
2023/05/26 07:06:12;;;;;;;4.22;1.20;;;17.90;72.70;;;;;;4970442;28;20258;-65
2023/05/26 07:08:40;;;;;;;1.00;0.90;;;17.90;72.60;;;;;;4951055;28;20195;-65
2023/05/26 07:11:29;;;;;;;0.80;0.80;;;17.90;72.50;;;;;;4958483;28;20219;-65
2023/05/26 07:14:00;;;;;;;1.98;1.02;;;18.00;72.40;;;;;;4935706;28;20317;-65
2023/05/26 07:16:27;;;;;;;2.17;1.35;;;18.00;72.10;;;;;;4976007;28;20956;-64
2023/05/26 07:18:54;;;;;;;2.70;1.20;;;18.10;72.10;;;;;;4931748;28;20295;-65
2023/05/26 07:21:25;;;;;;;5.20;1.25;;;18.20;72.00;;;;;;4957124;28;20262;-66
2023/05/26 07:23:52;;;;;;;6.25;1.40;;;18.30;71.90;;;;;;4959297;28;20253;-65
2023/05/26 07:26:20;;;;;;;1.13;1.05;;;18.30;71.50;;;;;;4937952;29;20217;-65
2023/05/26 07:28:51;;;;;;;1.67;1.15;;;18.30;71.40;;;;;;4933236;28;20668;-65
2023/05/26 07:31:19;;;;;;;1.67;0.80;;;18.40;71.40;;;;;;4937157;29;20204;-65
2023/05/26 07:33:49;;;;;;;4.32;1.10;;;18.50;71.40;;;;;;4949029;28;20209;-65
2023/05/26 07:36:17;;;;;;;1.20;1.00;;;18.50;71.20;;;;;;4936340;28;20213;-66
2023/05/26 07:38:44;;;;;;;0.93;0.93;;;18.60;71.10;;;;;;4938067;28;20617;-65
2023/05/26 07:41:12;;;;;;;1.45;1.10;;;18.70;70.30;;;;;;4945439;28;20535;-65
2023/05/26 07:43:39;;;;;;;0.93;0.82;;;18.80;69.00;;;;;;4955448;28;20613;-65
2023/05/26 07:46:07;;;;;;;1.27;1.17;;;18.90;67.90;;;;;;4946597;28;20204;-65
2023/05/26 07:48:34;;;;;;;1.55;1.23;;;18.90;66.90;;;;;;4951684;28;20211;-66
2023/05/26 07:51:02;;;;;;;1.38;1.10;;;18.90;66.60;;;;;;4950568;28;20205;-65
2023/05/26 07:53:30;;;;;;;1.33;0.80;;;18.90;66.30;;;;;;4949359;28;20209;-65
2023/05/26 07:55:57;;;;;;;4.32;1.38;;;19.00;66.40;;;;;;4950456;28;20213;-65
2023/05/26 07:58:24;;;;;;;1.60;1.00;;;19.00;66.10;;;;;;4946196;28;20269;-65
2023/05/26 08:00:51;;;;;;;2.35;1.38;;;19.10;65.70;;;;;;4946239;28;20315;-65
2023/05/26 08:03:19;;;;;;;5.03;1.50;;;19.10;65.50;;;;;;4955426;28;20216;-65
2023/05/26 08:05:47;;;;;;;3.17;1.10;;;19.10;65.50;;;;;;4953542;28;20241;-65
2023/05/26 08:08:15;;;;;;;1.55;1.25;;;19.20;66.10;;;;;;4945640;28;20305;-65
2023/05/26 08:10:42;;;;;;;2.05;1.05;;;19.30;65.90;;;;;;4928471;28;20618;-65
2023/05/26 08:13:09;;;;;;;1.30;1.08;;;19.40;66.00;;;;;;4951881;28;20604;-65
2023/05/26 08:15:36;;;;;;;4.13;1.50;;;19.50;66.00;;;;;;4958618;28;20239;-65
2023/05/26 08:18:03;;;;;;;1.83;1.17;;;19.60;65.60;;;;;;4984807;28;20291;-66
2023/05/26 08:20:31;;;;;;;2.15;1.13;;;19.60;65.60;;;;;;4972840;28;20208;-66
2023/05/26 08:22:59;;;;;;;1.20;0.95;;;19.70;65.50;;;;;;4983827;28;20212;-65
2023/05/26 08:25:26;;;;;;;4.13;1.00;;;19.70;65.30;;;;;;4971721;28;20199;-64
2023/05/26 08:27:54;;;;;;;2.35;0.90;;;19.80;65.20;;;;;;4983548;28;20200;-63
2023/05/26 08:30:21;;;;;;;2.17;1.00;;;19.80;64.90;;;;;;4971821;28;20231;-66
2023/05/26 08:32:48;;;;;;;1.75;0.88;;;19.80;64.90;;;;;;4972044;28;20580;-66
2023/05/26 08:35:15;;;;;;;1.10;1.00;;;19.90;65.00;;;;;;4977696;28;20230;-65
2023/05/26 08:37:44;;;;;;;3.08;1.25;;;20.00;65.20;;;;;;4972581;28;20684;-66
2023/05/26 08:40:14;;;;;;;2.10;1.50;;;20.00;65.10;;;;;;4977773;28;20211;-65
2023/05/26 08:42:46;;;;;;;2.45;1.15;;;20.10;65.10;;;;;;4979126;28;20221;-65
2023/05/26 08:45:13;;;;;;;1.83;1.45;;;20.30;65.20;;;;;;4979076;28;20290;-66
2023/05/26 08:47:42;;;;;;;5.25;1.67;;;20.30;64.80;;;;;;4969064;28;20275;-66
2023/05/26 08:50:11;;;;;;;3.42;1.70;;;20.30;64.30;;;;;;4979638;28;20553;-65
2023/05/26 08:52:39;;;;;;;4.20;1.80;;;20.20;63.90;;;;;;4968796;28;20263;-66
2023/05/26 08:55:09;;;;;;;1.80;1.27;;;20.30;63.70;;;;;;4980614;28;20200;-66
2023/05/26 08:57:38;;;;;;;2.55;1.60;;;20.30;63.40;;;;;;4975521;28;20315;-66
2023/05/26 09:00:07;;;;;;;3.75;1.38;;;20.30;63.30;;;;;;4980035;28;20200;-66
2023/05/26 09:02:34;;;;;;;4.50;1.55;;;20.30;63.00;;;;;;4973656;28;20894;-67
2023/05/26 09:05:02;;;;;;;3.58;1.50;;;20.40;62.60;;;;;;4976866;28;20593;-66
2023/05/26 09:07:30;;;;;;;2.50;1.13;;;20.50;62.20;;;;;;4967098;28;20201;-66
2023/05/26 09:10:03;;;;;;;3.13;1.40;;;20.50;62.20;;;;;;4968283;28;20280;-66
2023/05/26 09:12:37;;;;;;;4.57;1.80;;;20.60;61.70;;;;;;4965719;28;20192;-66
2023/05/26 09:15:05;;;;;;;3.05;1.52;;;20.60;60.80;;;;;;4967718;28;20189;-67
2023/05/26 09:17:35;;;;;;;4.20;1.30;;;20.70;60.80;;;;;;4966020;28;20695;-66
2023/05/26 09:20:02;;;;;;;2.63;1.33;;;20.70;60.40;;;;;;4967173;28;20692;-66
2023/05/26 09:22:34;;;;;;;1.58;1.30;;;20.80;60.40;;;;;;4951094;28;20998;-66
2023/05/26 09:25:03;;;;;;;2.28;1.10;;;20.90;60.40;;;;;;4948381;28;20282;-66
2023/05/26 09:27:30;;;;;;;2.15;1.35;;;21.00;60.20;;;;;;4966952;28;20196;-65
2023/05/26 09:30:00;;;;;;;2.08;1.00;;;21.10;60.00;;;;;;4968755;28;20255;-66
2023/05/26 09:32:28;;;;;;;0.98;0.90;;;21.10;59.90;;;;;;4967624;28;20255;-65
2023/05/26 09:34:57;;;;;;;0.95;0.80;;;21.20;59.80;;;;;;4959572;28;20208;-65
2023/05/26 09:37:29;;;;;;;3.88;1.02;;;21.30;59.80;;;;;;4973102;28;20270;-66
2023/05/26 09:39:56;;;;;;;3.30;1.23;;;21.40;59.40;;;;;;4967650;28;20192;-66
2023/05/26 09:42:23;;;;;;;2.85;1.35;;;21.40;58.80;;;;;;4967241;28;20694;-66
2023/05/26 09:44:51;;;;;;;2.92;1.70;;;21.40;58.20;;;;;;4968054;28;20260;-66
2023/05/26 09:47:22;;;;;;;1.60;1.17;;;21.50;57.90;;;;;;4966190;28;20208;-66
2023/05/26 09:49:51;;;;;;;2.00;1.27;;;21.50;57.90;;;;;;4968304;28;20196;-66
2023/05/26 09:52:19;;;;;;;4.85;1.50;;;21.50;57.60;;;;;;4967925;28;20203;-66
2023/05/26 09:54:46;;;;;;;1.88;1.35;;;21.60;57.60;;;;;;4973812;28;20208;-65
2023/05/26 09:57:14;;;;;;;2.35;1.10;;;21.60;57.10;;;;;;4962502;28;20233;-64
2023/05/26 09:59:44;;;;;;;1.10;1.10;;;21.60;57.60;;;;;;4969759;28;20560;-64
2023/05/26 10:02:19;;;;;;;2.47;1.50;;;21.70;58.30;;;;;;4974847;28;20223;-64
2023/05/26 10:04:49;;;;;;;1.48;1.30;;;21.80;58.20;;;;;;4968413;28;20317;-64
2023/05/26 10:07:18;;;;;;;1.25;1.00;;;21.90;58.30;;;;;;4969435;28;20280;-64
2023/05/26 10:09:47;;;;;;;3.90;1.35;;;22.00;58.40;;;;;;4966440;28;20197;-65
2023/05/26 10:12:16;;;;;;;2.90;1.38;;;22.00;57.80;;;;;;4953592;28;20224;-64
2023/05/26 10:14:43;;;;;;;2.47;1.20;;;22.00;57.30;;;;;;4953921;28;20911;-64
2023/05/26 10:17:10;;;;;;;1.48;1.27;;;22.00;57.20;;;;;;4954100;28;20259;-64
2023/05/26 10:19:38;;;;;;;2.03;1.55;;;22.00;57.10;;;;;;4966977;28;20231;-63
2023/05/26 10:22:12;;;;;;;2.22;1.25;;;22.00;57.10;;;;;;4971639;28;20318;-64
2023/05/26 10:24:41;;;;;;;2.45;1.30;;;22.10;57.30;;;;;;4971132;28;20247;-63
2023/05/26 10:27:31;;;;;;;1.55;1.45;;;22.20;57.20;;;;;;4974848;28;20196;-63
2023/05/26 10:30:05;;;;;;;1.60;1.40;;;22.20;57.10;;;;;;4970561;28;20204;-63
2023/05/26 10:32:53;;;;;;;1.40;1.30;;;22.20;56.90;;;;;;4976255;28;20641;-64
2023/05/26 10:35:38;;;;;;;1.17;1.10;;;22.30;57.00;;;;;;4969962;28;20204;-64
2023/05/26 10:38:13;;;;;;;2.45;1.00;;;22.40;57.00;;;;;;4970658;28;20223;-63
2023/05/26 10:40:44;;;;;;;4.05;1.30;;;22.50;57.40;;;;;;4977769;28;20203;-65
2023/05/26 10:43:18;;;;;;;2.42;1.60;;;22.50;56.20;;;;;;4973010;28;20223;-65
2023/05/26 10:45:46;;;;;;;3.83;1.77;;;22.40;56.10;;;;;;4953587;28;20254;-65
2023/05/26 10:48:14;;;;;;;2.38;1.75;;;22.50;55.50;;;;;;4968659;28;20213;-63
2023/05/26 10:51:10;;;;;;;1.98;1.40;;;22.40;55.40;;;;;;4970593;28;20235;-64
2023/05/26 10:53:42;;;;;;;9.68;1.52;;;22.40;55.30;;;;;;4970345;28;20283;-64
2023/05/26 10:56:12;;;;;;;2.08;1.33;;;22.40;54.70;;;;;;4976030;28;20197;-64
2023/05/26 10:58:41;;;;;;;3.15;1.60;;;22.40;55.10;;;;;;4977858;28;20200;-64
2023/05/26 11:01:11;;;;;;;4.20;1.90;;;22.40;53.90;;;;;;4970224;28;20253;-63
2023/05/26 11:03:41;;;;;;;4.00;1.90;;;22.40;53.50;;;;;;4952912;28;20641;-65
2023/05/26 11:06:10;;;;;;;3.92;1.42;;;22.40;53.70;;;;;;4954528;28;20331;-63
2023/05/26 11:08:40;;;;;;;3.85;1.35;;;22.50;53.90;;;;;;4945916;28;20214;-64
2023/05/26 11:11:10;;;;;;;1.40;1.30;;;22.60;54.00;;;;;;4938714;29;20662;-64
2023/05/26 11:13:48;;;;;;;6.47;1.70;;;22.80;53.90;;;;;;4947270;28;20201;-64
2023/05/26 11:16:21;;;;;;;2.42;1.40;;;22.90;53.20;;;;;;4950952;28;20768;-63
2023/05/26 11:18:52;;;;;;;6.82;1.80;;;22.90;53.40;;;;;;4948341;29;20228;-63
2023/05/26 11:21:26;;;;;;;6.32;1.77;;;22.90;52.70;;;;;;4950502;29;20221;-64
2023/05/26 11:23:56;;;;;;;4.75;1.98;;;22.90;52.40;;;;;;4949579;29;20296;-65
2023/05/26 11:26:25;;;;;;;1.50;1.40;;;23.00;52.40;;;;;;4950600;28;20202;-65
2023/05/26 11:28:53;;;;;;;4.00;1.67;;;23.10;52.80;;;;;;4958052;28;20221;-64
2023/05/26 11:31:22;;;;;;;5.35;1.75;;;23.10;53.50;;;;;;4952757;28;20200;-64
2023/05/26 11:33:50;;;;;;;1.83;1.20;;;23.20;52.80;;;;;;4948434;28;20208;-64
2023/05/26 11:36:19;;;;;;;1.10;1.00;;;23.20;52.70;;;;;;4942206;28;20214;-64
2023/05/26 11:38:47;;;;;;;3.35;1.70;;;23.30;52.80;;;;;;4953897;28;20201;-65
2023/05/26 11:41:16;;;;;;;3.90;1.52;;;23.40;52.70;;;;;;4948248;28;20200;-64
2023/05/26 11:43:45;;;;;;;4.57;1.85;;;23.40;52.70;;;;;;4957834;28;20220;-64
2023/05/26 11:46:15;;;;;;;4.38;1.17;;;23.40;52.60;;;;;;4957721;28;20205;-64
2023/05/26 11:48:44;;;;;;;2.00;1.30;;;23.50;52.80;;;;;;4952750;28;20672;-64
2023/05/26 11:51:13;;;;;;;4.63;1.30;;;23.50;52.70;;;;;;4959040;28;20204;-63
2023/05/26 11:53:42;;;;;;;9.82;2.22;;;23.50;52.80;;;;;;4958440;28;20201;-63
2023/05/26 11:56:10;;;;;;;4.57;1.63;;;23.50;52.10;;;;;;4955592;28;20240;-64
2023/05/26 11:58:41;;;;;;;11.65;1.95;;;23.50;52.40;;;;;;4954463;28;20685;-64
2023/05/26 12:01:09;;;;;;;6.05;1.63;;;23.50;52.00;;;;;;4953882;28;20204;-64
2023/05/26 12:03:40;;;;;;;5.40;1.83;;;23.50;52.40;;;;;;4951683;28;20236;-64
2023/05/26 12:06:10;;;;;;;1.95;1.67;;;23.50;52.40;;;;;;4953497;28;20324;-64
2023/05/26 12:08:48;;;;;;;3.92;1.60;;;23.40;52.50;;;;;;4951581;28;20304;-64
2023/05/26 12:11:17;;;;;;;4.03;1.90;;;23.50;52.80;;;;;;4934588;29;20212;-65
2023/05/26 12:13:45;;;;;;;3.60;1.88;;;23.40;52.80;;;;;;4947136;29;20207;-63
2023/05/26 12:16:34;;;;;;;1.90;1.50;;;23.40;52.90;;;;;;4950192;28;20926;-64
2023/05/26 12:19:03;;;;;;;3.15;1.60;;;23.30;53.20;;;;;;4940027;28;20321;-65
2023/05/26 12:21:32;;;;;;;1.17;1.10;;;23.30;53.40;;;;;;4953282;28;20632;-66
2023/05/26 12:24:00;;;;;;;2.80;1.40;;;23.40;53.50;;;;;;4948571;29;20221;-66
2023/05/26 12:26:29;;;;;;;2.30;1.50;;;23.40;53.30;;;;;;4953134;28;20282;-66
2023/05/26 12:29:08;;;;;;;3.78;1.45;;;23.40;52.80;;;;;;4945266;28;20197;-65
2023/05/26 12:31:44;;;;;;;1.23;1.13;;;23.30;52.80;;;;;;4949425;28;20283;-65
2023/05/26 12:34:12;;;;;;;13.02;1.92;;;23.40;52.90;;;;;;4949293;28;20197;-66
2023/05/26 12:36:39;;;;;;;7.20;1.77;;;23.30;52.70;;;;;;4949295;28;20736;-64
2023/05/26 12:39:07;;;;;;;2.28;1.63;;;23.30;52.50;;;;;;4947680;29;20315;-65
2023/05/26 12:41:37;;;;;;;1.95;1.20;;;23.30;52.60;;;;;;4948203;29;20209;-65
2023/05/26 12:44:04;;;;;;;3.13;1.75;;;23.20;52.70;;;;;;4947104;29;20221;-66
2023/05/26 12:46:33;;;;;;;2.58;1.40;;;23.20;52.80;;;;;;4951433;28;20299;-65
2023/05/26 12:49:00;;;;;;;4.43;1.30;;;23.10;52.90;;;;;;4947287;29;20747;-66
2023/05/26 12:51:27;;;;;;;2.28;1.77;;;23.10;52.90;;;;;;4933989;28;20232;-65
2023/05/26 12:53:55;;;;;;;3.75;1.45;;;23.00;52.90;;;;;;4941747;28;20200;-66
2023/05/26 12:56:22;;;;;;;3.50;1.52;;;23.00;53.00;;;;;;4935654;28;20201;-65
2023/05/26 12:58:49;;;;;;;2.45;1.20;;;22.90;53.10;;;;;;4950476;28;20197;-65
2023/05/26 13:01:16;;;;;;;1.73;1.17;;;22.90;53.10;;;;;;4948465;28;20208;-65
2023/05/26 13:03:47;;;;;;;3.17;1.40;;;22.90;52.80;;;;;;4946735;29;20767;-65